KGON/GON METAR and TAF weather

Enter ICAO airport designator
Station Type Date Time Source
KGON METAR 2020/04/01 23:56 UTC NOAA

KGON 012356Z 02008KT 10SM CLR 07/M03 A2970 RMK AO2 SLP057 T00671028 10100 20067 55002


Station Type Date Time Source
KGON Decoded METAR 2020/04/01 23:56 UTC NOAA

GROTON/NEW LONDON AIRPORT , CT, United States (KGON) 41-20N 72-03W 3M
Apr 01, 2020 - 07:56 PM EDT / 2020.04.01 2356 UTC
Wind: from the NNE (020 degrees) at 9 MPH (8 KT):0
Visibility: 10 mile(s):0
Sky conditions: clear
Temperature: 44.1 F (6.7 C)
Dew Point: 27.0 F (-2.8 C)
Relative Humidity: 50%
Pressure (altimeter): 29.7 in. Hg (1005 hPa)
Pressure tendency: 0.01 inches (0.2 hPa) lower than three hours ago
ob: KGON 012356Z 02008KT 10SM CLR 07/M03 A2970 RMK AO2 SLP057 T00671028 10100 20067 55002
cycle: 0

Station Type Date Time Source
KGON TAF 2020/04/02 00:03 UTC NOAA

TAF KGON 020001Z 0200/0224 01008KT P6SM BKN200
FM020600 33008KT P6SM BKN200
FM021200 33013G21KT P6SM BKN150
FM021500 32018G26KT P6SM BKN050
FM021900 32020G28KT P6SM VCSH OVC030
FM022100 32020G28KT P6SM VCSH OVC015

Example: see airport list